sensor_id;sensor_type;location;lat;lon;timestamp;temperature;humidity
70807;DHT22;58882;52.170;5.386;2022-10-23T00:01:28;18.20;62.30
70807;DHT22;58882;52.170;5.386;2022-10-23T00:04:05;18.20;62.30
70807;DHT22;58882;52.170;5.386;2022-10-23T00:06:33;18.20;62.30
70807;DHT22;58882;52.170;5.386;2022-10-23T00:09:01;18.20;62.30
70807;DHT22;58882;52.170;5.386;2022-10-23T00:11:29;18.20;62.30
70807;DHT22;58882;52.170;5.386;2022-10-23T00:13:59;18.10;62.30
70807;DHT22;58882;52.170;5.386;2022-10-23T00:16:27;18.10;62.30
70807;DHT22;58882;52.170;5.386;2022-10-23T00:18:54;18.10;62.30
70807;DHT22;58882;52.170;5.386;2022-10-23T00:21:21;18.10;62.30
70807;DHT22;58882;52.170;5.386;2022-10-23T00:23:48;18.10;62.40
70807;DHT22;58882;52.170;5.386;2022-10-23T00:26:15;18.10;62.40
70807;DHT22;58882;52.170;5.386;2022-10-23T00:28:48;18.10;62.50
70807;DHT22;58882;52.170;5.386;2022-10-23T00:31:15;18.00;62.60
70807;DHT22;58882;52.170;5.386;2022-10-23T00:33:42;18.10;62.60
70807;DHT22;58882;52.170;5.386;2022-10-23T00:36:11;18.00;62.40
70807;DHT22;58882;52.170;5.386;2022-10-23T00:38:39;18.00;62.40
70807;DHT22;58882;52.170;5.386;2022-10-23T00:41:07;18.00;62.50
70807;DHT22;58882;52.170;5.386;2022-10-23T00:43:34;18.00;62.50
70807;DHT22;58882;52.170;5.386;2022-10-23T00:46:19;18.00;62.50
70807;DHT22;58882;52.170;5.386;2022-10-23T00:48:47;18.00;62.50
70807;DHT22;58882;52.170;5.386;2022-10-23T00:51:13;18.00;62.60
70807;DHT22;58882;52.170;5.386;2022-10-23T00:53:41;17.90;62.60
70807;DHT22;58882;52.170;5.386;2022-10-23T00:56:09;18.00;62.80
70807;DHT22;58882;52.170;5.386;2022-10-23T00:58:37;18.00;62.70
70807;DHT22;58882;52.170;5.386;2022-10-23T01:01:19;18.00;62.70
70807;DHT22;58882;52.170;5.386;2022-10-23T01:03:47;18.00;63.10
70807;DHT22;58882;52.170;5.386;2022-10-23T01:06:25;18.00;62.60
70807;DHT22;58882;52.170;5.386;2022-10-23T01:11:50;17.90;62.80
70807;DHT22;58882;52.170;5.386;2022-10-23T01:14:38;17.90;62.80
70807;DHT22;58882;52.170;5.386;2022-10-23T01:20:35;17.90;63.00
70807;DHT22;58882;52.170;5.386;2022-10-23T01:28:52;17.80;63.00
70807;DHT22;58882;52.170;5.386;2022-10-23T01:31:44;17.80;63.00
70807;DHT22;58882;52.170;5.386;2022-10-23T01:34:15;17.80;63.00
70807;DHT22;58882;52.170;5.386;2022-10-23T01:36:46;17.80;63.00
70807;DHT22;58882;52.170;5.386;2022-10-23T01:39:19;17.80;63.10
70807;DHT22;58882;52.170;5.386;2022-10-23T01:41:56;17.70;63.00
70807;DHT22;58882;52.170;5.386;2022-10-23T01:47:06;17.70;63.00
70807;DHT22;58882;52.170;5.386;2022-10-23T01:49:44;17.70;63.00
70807;DHT22;58882;52.170;5.386;2022-10-23T01:52:14;17.70;63.00
70807;DHT22;58882;52.170;5.386;2022-10-23T01:54:44;17.70;63.00
70807;DHT22;58882;52.170;5.386;2022-10-23T01:57:15;17.70;63.00
70807;DHT22;58882;52.170;5.386;2022-10-23T01:59:50;17.70;63.10
70807;DHT22;58882;52.170;5.386;2022-10-23T02:02:20;17.70;63.20
70807;DHT22;58882;52.170;5.386;2022-10-23T02:05:11;17.70;63.20
70807;DHT22;58882;52.170;5.386;2022-10-23T02:07:40;17.60;63.40
70807;DHT22;58882;52.170;5.386;2022-10-23T02:10:09;17.60;63.30
70807;DHT22;58882;52.170;5.386;2022-10-23T02:15:54;17.70;63.40
70807;DHT22;58882;52.170;5.386;2022-10-23T02:21:11;17.60;63.20
70807;DHT22;58882;52.170;5.386;2022-10-23T02:23:50;17.70;63.30
70807;DHT22;58882;52.170;5.386;2022-10-23T02:26:38;17.60;63.20
70807;DHT22;58882;52.170;5.386;2022-10-23T02:29:10;17.60;63.30
70807;DHT22;58882;52.170;5.386;2022-10-23T02:31:42;17.60;63.40
70807;DHT22;58882;52.170;5.386;2022-10-23T02:34:08;17.60;64.30
70807;DHT22;58882;52.170;5.386;2022-10-23T02:36:36;17.60;63.40
70807;DHT22;58882;52.170;5.386;2022-10-23T02:39:03;17.50;64.30
70807;DHT22;58882;52.170;5.386;2022-10-23T02:47:42;17.60;63.50
70807;DHT22;58882;52.170;5.386;2022-10-23T03:01:50;17.60;63.30
70807;DHT22;58882;52.170;5.386;2022-10-23T03:04:23;17.50;63.30
70807;DHT22;58882;52.170;5.386;2022-10-23T03:06:51;17.50;63.30
70807;DHT22;58882;52.170;5.386;2022-10-23T03:09:18;17.50;63.40
70807;DHT22;58882;52.170;5.386;2022-10-23T03:11:45;17.50;63.40
70807;DHT22;58882;52.170;5.386;2022-10-23T03:14:12;17.50;63.40
70807;DHT22;58882;52.170;5.386;2022-10-23T03:16:39;17.50;64.30
70807;DHT22;58882;52.170;5.386;2022-10-23T03:19:08;17.50;63.50
70807;DHT22;58882;52.170;5.386;2022-10-23T03:21:35;17.50;63.40
70807;DHT22;58882;52.170;5.386;2022-10-23T03:24:06;17.50;63.50
70807;DHT22;58882;52.170;5.386;2022-10-23T03:26:38;17.40;63.30
70807;DHT22;58882;52.170;5.386;2022-10-23T03:29:05;17.40;63.40
70807;DHT22;58882;52.170;5.386;2022-10-23T03:31:38;17.40;63.80
70807;DHT22;58882;52.170;5.386;2022-10-23T03:34:05;17.40;63.50
70807;DHT22;58882;52.170;5.386;2022-10-23T03:36:38;17.40;63.40
70807;DHT22;58882;52.170;5.386;2022-10-23T03:39:07;17.40;63.50
70807;DHT22;58882;52.170;5.386;2022-10-23T03:41:33;17.40;63.50
70807;DHT22;58882;52.170;5.386;2022-10-23T03:44:00;17.40;63.40
70807;DHT22;58882;52.170;5.386;2022-10-23T03:46:27;17.40;63.60
70807;DHT22;58882;52.170;5.386;2022-10-23T03:48:54;17.40;63.60
70807;DHT22;58882;52.170;5.386;2022-10-23T03:51:23;17.40;63.50
70807;DHT22;58882;52.170;5.386;2022-10-23T03:53:50;17.40;63.50
70807;DHT22;58882;52.170;5.386;2022-10-23T03:56:17;17.40;63.60
70807;DHT22;58882;52.170;5.386;2022-10-23T03:58:44;17.40;63.60
70807;DHT22;58882;52.170;5.386;2022-10-23T04:01:12;17.40;63.50
70807;DHT22;58882;52.170;5.386;2022-10-23T04:03:39;17.50;63.60
70807;DHT22;58882;52.170;5.386;2022-10-23T04:06:06;17.50;63.60
70807;DHT22;58882;52.170;5.386;2022-10-23T04:08:33;17.50;63.50
70807;DHT22;58882;52.170;5.386;2022-10-23T04:11:04;17.50;63.40
70807;DHT22;58882;52.170;5.386;2022-10-23T04:13:38;17.50;63.30
70807;DHT22;58882;52.170;5.386;2022-10-23T04:16:05;17.50;63.30
70807;DHT22;58882;52.170;5.386;2022-10-23T04:18:32;17.50;63.40
70807;DHT22;58882;52.170;5.386;2022-10-23T04:20:58;17.50;63.20
70807;DHT22;58882;52.170;5.386;2022-10-23T04:23:25;17.50;63.80
70807;DHT22;58882;52.170;5.386;2022-10-23T04:25:55;17.50;63.20
70807;DHT22;58882;52.170;5.386;2022-10-23T04:28:24;17.50;63.20
70807;DHT22;58882;52.170;5.386;2022-10-23T04:30:51;17.50;63.20
70807;DHT22;58882;52.170;5.386;2022-10-23T04:33:18;17.50;63.20
70807;DHT22;58882;52.170;5.386;2022-10-23T04:35:48;17.50;63.20
70807;DHT22;58882;52.170;5.386;2022-10-23T04:38:15;17.50;63.10
70807;DHT22;58882;52.170;5.386;2022-10-23T04:40:42;17.50;63.20
70807;DHT22;58882;52.170;5.386;2022-10-23T04:43:09;17.50;63.20
70807;DHT22;58882;52.170;5.386;2022-10-23T04:45:38;17.50;63.10
70807;DHT22;58882;52.170;5.386;2022-10-23T04:48:05;17.50;63.00
70807;DHT22;58882;52.170;5.386;2022-10-23T04:50:58;17.40;63.10
70807;DHT22;58882;52.170;5.386;2022-10-23T04:53:50;17.40;63.10
70807;DHT22;58882;52.170;5.386;2022-10-23T04:56:41;17.40;63.20
70807;DHT22;58882;52.170;5.386;2022-10-23T04:59:12;17.40;63.20
70807;DHT22;58882;52.170;5.386;2022-10-23T05:01:40;17.40;63.30
70807;DHT22;58882;52.170;5.386;2022-10-23T05:04:08;17.40;63.30
70807;DHT22;58882;52.170;5.386;2022-10-23T05:06:55;17.30;63.40
70807;DHT22;58882;52.170;5.386;2022-10-23T05:09:54;17.30;63.50
70807;DHT22;58882;52.170;5.386;2022-10-23T05:12:38;17.30;63.40
70807;DHT22;58882;52.170;5.386;2022-10-23T05:15:05;17.30;63.40
70807;DHT22;58882;52.170;5.386;2022-10-23T05:17:34;17.30;63.50
70807;DHT22;58882;52.170;5.386;2022-10-23T05:20:07;17.40;63.50
70807;DHT22;58882;52.170;5.386;2022-10-23T05:22:38;17.40;63.40
70807;DHT22;58882;52.170;5.386;2022-10-23T05:25:10;17.40;63.40
70807;DHT22;58882;52.170;5.386;2022-10-23T05:27:39;17.40;63.40
70807;DHT22;58882;52.170;5.386;2022-10-23T05:30:10;17.40;63.50
70807;DHT22;58882;52.170;5.386;2022-10-23T05:32:37;17.40;63.60
70807;DHT22;58882;52.170;5.386;2022-10-23T05:35:11;17.40;63.50
70807;DHT22;58882;52.170;5.386;2022-10-23T05:37:40;17.40;63.50
70807;DHT22;58882;52.170;5.386;2022-10-23T05:40:12;17.30;63.40
70807;DHT22;58882;52.170;5.386;2022-10-23T05:42:41;17.40;63.40
70807;DHT22;58882;52.170;5.386;2022-10-23T05:45:11;17.40;63.50
70807;DHT22;58882;52.170;5.386;2022-10-23T05:48:00;17.30;63.50
70807;DHT22;58882;52.170;5.386;2022-10-23T05:51:08;17.30;63.60
70807;DHT22;58882;52.170;5.386;2022-10-23T05:53:51;17.30;63.80
70807;DHT22;58882;52.170;5.386;2022-10-23T05:56:44;17.40;63.80
70807;DHT22;58882;52.170;5.386;2022-10-23T05:59:19;17.40;63.70
70807;DHT22;58882;52.170;5.386;2022-10-23T06:01:49;17.40;63.70
70807;DHT22;58882;52.170;5.386;2022-10-23T06:04:36;17.40;63.70
70807;DHT22;58882;52.170;5.386;2022-10-23T06:07:03;17.40;63.70
70807;DHT22;58882;52.170;5.386;2022-10-23T06:09:30;17.40;63.70
70807;DHT22;58882;52.170;5.386;2022-10-23T06:11:57;17.40;63.70
70807;DHT22;58882;52.170;5.386;2022-10-23T06:14:24;17.40;63.80
70807;DHT22;58882;52.170;5.386;2022-10-23T06:16:52;17.40;63.80
70807;DHT22;58882;52.170;5.386;2022-10-23T06:19:19;17.40;63.90
70807;DHT22;58882;52.170;5.386;2022-10-23T06:21:51;17.40;63.90
70807;DHT22;58882;52.170;5.386;2022-10-23T06:24:20;17.50;64.00
70807;DHT22;58882;52.170;5.386;2022-10-23T06:26:51;17.50;64.10
70807;DHT22;58882;52.170;5.386;2022-10-23T06:29:37;17.50;64.00
70807;DHT22;58882;52.170;5.386;2022-10-23T06:32:03;17.50;64.00
70807;DHT22;58882;52.170;5.386;2022-10-23T06:34:30;17.60;64.10
70807;DHT22;58882;52.170;5.386;2022-10-23T06:36:57;17.60;64.10
70807;DHT22;58882;52.170;5.386;2022-10-23T06:39:50;17.60;64.10
70807;DHT22;58882;52.170;5.386;2022-10-23T06:42:21;17.60;63.90
70807;DHT22;58882;52.170;5.386;2022-10-23T06:44:55;17.60;63.90
70807;DHT22;58882;52.170;5.386;2022-10-23T06:47:54;17.60;63.90
70807;DHT22;58882;52.170;5.386;2022-10-23T06:50:27;17.60;64.00
70807;DHT22;58882;52.170;5.386;2022-10-23T06:52:58;17.60;64.10
70807;DHT22;58882;52.170;5.386;2022-10-23T06:55:25;17.60;64.10
70807;DHT22;58882;52.170;5.386;2022-10-23T06:57:52;17.60;64.10
70807;DHT22;58882;52.170;5.386;2022-10-23T07:00:19;17.70;64.20
70807;DHT22;58882;52.170;5.386;2022-10-23T07:02:49;17.70;64.20
70807;DHT22;58882;52.170;5.386;2022-10-23T07:05:18;17.70;64.30
70807;DHT22;58882;52.170;5.386;2022-10-23T07:07:45;17.70;64.20
70807;DHT22;58882;52.170;5.386;2022-10-23T07:10:17;17.70;64.20
70807;DHT22;58882;52.170;5.386;2022-10-23T07:12:46;17.70;63.50
70807;DHT22;58882;52.170;5.386;2022-10-23T07:15:35;17.80;64.20
70807;DHT22;58882;52.170;5.386;2022-10-23T07:18:04;17.80;64.30
70807;DHT22;58882;52.170;5.386;2022-10-23T07:20:57;17.80;64.30
70807;DHT22;58882;52.170;5.386;2022-10-23T07:23:24;17.80;64.10
70807;DHT22;58882;52.170;5.386;2022-10-23T07:25:51;17.90;64.20
70807;DHT22;58882;52.170;5.386;2022-10-23T07:28:21;17.90;64.20
70807;DHT22;58882;52.170;5.386;2022-10-23T07:30:56;17.90;64.00
70807;DHT22;58882;52.170;5.386;2022-10-23T07:33:24;18.00;64.10
70807;DHT22;58882;52.170;5.386;2022-10-23T07:36:08;18.00;63.90
70807;DHT22;58882;52.170;5.386;2022-10-23T07:38:35;18.00;63.80
70807;DHT22;58882;52.170;5.386;2022-10-23T07:41:03;18.10;63.80
70807;DHT22;58882;52.170;5.386;2022-10-23T07:43:35;18.10;63.80
70807;DHT22;58882;52.170;5.386;2022-10-23T07:46:03;18.20;63.70
70807;DHT22;58882;52.170;5.386;2022-10-23T07:48:35;18.20;63.50
70807;DHT22;58882;52.170;5.386;2022-10-23T07:51:05;18.30;63.40
70807;DHT22;58882;52.170;5.386;2022-10-23T07:53:39;18.30;63.30
70807;DHT22;58882;52.170;5.386;2022-10-23T07:56:38;18.40;63.30
70807;DHT22;58882;52.170;5.386;2022-10-23T07:59:15;18.50;63.30
70807;DHT22;58882;52.170;5.386;2022-10-23T08:01:48;18.50;63.10
70807;DHT22;58882;52.170;5.386;2022-10-23T08:04:21;18.50;63.10
70807;DHT22;58882;52.170;5.386;2022-10-23T08:06:55;18.50;63.00
70807;DHT22;58882;52.170;5.386;2022-10-23T08:09:24;18.60;63.10
70807;DHT22;58882;52.170;5.386;2022-10-23T08:11:51;18.60;63.00
70807;DHT22;58882;52.170;5.386;2022-10-23T08:14:19;18.60;63.00
70807;DHT22;58882;52.170;5.386;2022-10-23T08:16:46;18.60;63.00
70807;DHT22;58882;52.170;5.386;2022-10-23T08:19:16;18.70;63.00
70807;DHT22;58882;52.170;5.386;2022-10-23T08:21:45;18.70;62.90
70807;DHT22;58882;52.170;5.386;2022-10-23T08:24:12;18.70;62.90
70807;DHT22;58882;52.170;5.386;2022-10-23T08:26:42;18.80;62.80
70807;DHT22;58882;52.170;5.386;2022-10-23T08:29:10;18.80;62.90
70807;DHT22;58882;52.170;5.386;2022-10-23T08:31:37;18.80;62.90
70807;DHT22;58882;52.170;5.386;2022-10-23T08:34:21;18.80;62.90
70807;DHT22;58882;52.170;5.386;2022-10-23T08:36:49;18.80;63.00
70807;DHT22;58882;52.170;5.386;2022-10-23T08:39:16;18.80;62.90
70807;DHT22;58882;52.170;5.386;2022-10-23T08:42:04;18.80;63.00
70807;DHT22;58882;52.170;5.386;2022-10-23T08:44:45;18.80;63.10
70807;DHT22;58882;52.170;5.386;2022-10-23T08:47:35;18.80;63.00
70807;DHT22;58882;52.170;5.386;2022-10-23T08:53:14;18.80;62.90
70807;DHT22;58882;52.170;5.386;2022-10-23T08:55:48;18.80;62.90
70807;DHT22;58882;52.170;5.386;2022-10-23T08:58:28;18.90;62.90
70807;DHT22;58882;52.170;5.386;2022-10-23T09:00:57;18.90;62.90
70807;DHT22;58882;52.170;5.386;2022-10-23T09:03:24;18.90;62.90
70807;DHT22;58882;52.170;5.386;2022-10-23T09:09:12;18.90;62.90
70807;DHT22;58882;52.170;5.386;2022-10-23T09:11:43;19.00;62.80
70807;DHT22;58882;52.170;5.386;2022-10-23T09:17:41;19.10;62.80
70807;DHT22;58882;52.170;5.386;2022-10-23T09:20:22;19.10;62.70
70807;DHT22;58882;52.170;5.386;2022-10-23T09:22:56;19.20;62.70
70807;DHT22;58882;52.170;5.386;2022-10-23T09:25:27;19.20;62.50
70807;DHT22;58882;52.170;5.386;2022-10-23T09:27:57;19.20;62.50
70807;DHT22;58882;52.170;5.386;2022-10-23T09:30:35;19.20;62.60
70807;DHT22;58882;52.170;5.386;2022-10-23T09:33:20;19.20;62.60
70807;DHT22;58882;52.170;5.386;2022-10-23T09:41:23;19.20;62.60
70807;DHT22;58882;52.170;5.386;2022-10-23T09:44:19;19.20;62.60
70807;DHT22;58882;52.170;5.386;2022-10-23T09:46:50;19.20;62.60
70807;DHT22;58882;52.170;5.386;2022-10-23T09:49:23;19.20;62.60
70807;DHT22;58882;52.170;5.386;2022-10-23T09:52:11;19.20;62.60
70807;DHT22;58882;52.170;5.386;2022-10-23T09:59:43;19.20;62.60
70807;DHT22;58882;52.170;5.386;2022-10-23T10:02:40;19.20;62.60
70807;DHT22;58882;52.170;5.386;2022-10-23T10:10:59;19.20;62.60
70807;DHT22;58882;52.170;5.386;2022-10-23T10:16:06;19.20;62.50
70807;DHT22;58882;52.170;5.386;2022-10-23T10:18:42;19.30;62.50
70807;DHT22;58882;52.170;5.386;2022-10-23T10:21:21;19.30;62.50
70807;DHT22;58882;52.170;5.386;2022-10-23T10:24:20;19.30;62.30
70807;DHT22;58882;52.170;5.386;2022-10-23T10:26:59;19.30;62.30
70807;DHT22;58882;52.170;5.386;2022-10-23T10:29:39;19.40;62.30
70807;DHT22;58882;52.170;5.386;2022-10-23T10:35:02;19.40;62.30
70807;DHT22;58882;52.170;5.386;2022-10-23T10:37:49;19.40;62.20
70807;DHT22;58882;52.170;5.386;2022-10-23T10:40:29;19.40;62.10
70807;DHT22;58882;52.170;5.386;2022-10-23T10:43:22;19.40;62.10
70807;DHT22;58882;52.170;5.386;2022-10-23T10:46:01;19.50;62.00
70807;DHT22;58882;52.170;5.386;2022-10-23T10:51:50;19.50;62.10
70807;DHT22;58882;52.170;5.386;2022-10-23T10:56:47;19.60;62.00
70807;DHT22;58882;52.170;5.386;2022-10-23T10:59:46;19.60;62.00
70807;DHT22;58882;52.170;5.386;2022-10-23T11:02:28;19.60;62.00
70807;DHT22;58882;52.170;5.386;2022-10-23T11:08:04;19.60;61.90
70807;DHT22;58882;52.170;5.386;2022-10-23T11:10:32;19.60;61.80
70807;DHT22;58882;52.170;5.386;2022-10-23T11:13:02;19.70;61.70
70807;DHT22;58882;52.170;5.386;2022-10-23T11:15:40;19.70;61.70
70807;DHT22;58882;52.170;5.386;2022-10-23T11:18:24;19.70;61.60
70807;DHT22;58882;52.170;5.386;2022-10-23T11:23:47;19.80;61.50
70807;DHT22;58882;52.170;5.386;2022-10-23T11:32:24;19.80;61.60
70807;DHT22;58882;52.170;5.386;2022-10-23T11:37:24;19.80;61.50
70807;DHT22;58882;52.170;5.386;2022-10-23T11:40:11;19.80;61.40
70807;DHT22;58882;52.170;5.386;2022-10-23T11:53:37;20.10;61.10
70807;DHT22;58882;52.170;5.386;2022-10-23T11:56:22;20.20;61.00
70807;DHT22;58882;52.170;5.386;2022-10-23T11:58:51;20.30;60.80
70807;DHT22;58882;52.170;5.386;2022-10-23T12:06:57;20.50;60.40
70807;DHT22;58882;52.170;5.386;2022-10-23T12:09:38;20.60;60.10
70807;DHT22;58882;52.170;5.386;2022-10-23T12:19:51;20.80;59.40
70807;DHT22;58882;52.170;5.386;2022-10-23T12:22:19;20.90;59.20
70807;DHT22;58882;52.170;5.386;2022-10-23T12:25:16;20.90;59.00
70807;DHT22;58882;52.170;5.386;2022-10-23T12:30:49;21.00;58.70
70807;DHT22;58882;52.170;5.386;2022-10-23T12:38:43;21.10;58.50
70807;DHT22;58882;52.170;5.386;2022-10-23T12:41:13;21.20;58.30
70807;DHT22;58882;52.170;5.386;2022-10-23T12:43:48;21.20;58.10
70807;DHT22;58882;52.170;5.386;2022-10-23T12:46:32;21.20;58.10
70807;DHT22;58882;52.170;5.386;2022-10-23T12:49:02;21.10;58.10
70807;DHT22;58882;52.170;5.386;2022-10-23T12:51:32;21.20;58.20
70807;DHT22;58882;52.170;5.386;2022-10-23T12:54:00;21.20;58.10
70807;DHT22;58882;52.170;5.386;2022-10-23T12:56:34;21.20;58.00
70807;DHT22;58882;52.170;5.386;2022-10-23T12:59:01;21.20;57.80
70807;DHT22;58882;52.170;5.386;2022-10-23T13:01:32;21.30;57.80
70807;DHT22;58882;52.170;5.386;2022-10-23T13:06:37;21.20;57.80
70807;DHT22;58882;52.170;5.386;2022-10-23T13:09:09;21.30;57.90
70807;DHT22;58882;52.170;5.386;2022-10-23T13:12:10;21.30;57.80
70807;DHT22;58882;52.170;5.386;2022-10-23T13:14:57;21.30;57.80
70807;DHT22;58882;52.170;5.386;2022-10-23T13:17:40;21.30;57.80
70807;DHT22;58882;52.170;5.386;2022-10-23T13:20:20;21.30;57.70
70807;DHT22;58882;52.170;5.386;2022-10-23T13:23:14;21.40;57.70
70807;DHT22;58882;52.170;5.386;2022-10-23T13:25:37;21.40;57.70
70807;DHT22;58882;52.170;5.386;2022-10-23T13:28:32;21.40;57.60
70807;DHT22;58882;52.170;5.386;2022-10-23T13:33:40;21.40;57.70
70807;DHT22;58882;52.170;5.386;2022-10-23T13:38:42;21.40;57.70
70807;DHT22;58882;52.170;5.386;2022-10-23T13:41:15;21.40;57.70
70807;DHT22;58882;52.170;5.386;2022-10-23T13:43:43;21.40;57.70
70807;DHT22;58882;52.170;5.386;2022-10-23T13:46:20;21.50;57.70
70807;DHT22;58882;52.170;5.386;2022-10-23T13:48:47;21.40;57.50
70807;DHT22;58882;52.170;5.386;2022-10-23T13:51:21;21.50;57.50
70807;DHT22;58882;52.170;5.386;2022-10-23T13:53:49;21.50;57.50
70807;DHT22;58882;52.170;5.386;2022-10-23T13:56:17;21.50;57.40
70807;DHT22;58882;52.170;5.386;2022-10-23T13:58:45;21.50;57.40
70807;DHT22;58882;52.170;5.386;2022-10-23T14:01:29;21.60;57.40
70807;DHT22;58882;52.170;5.386;2022-10-23T14:03:57;21.60;57.40
70807;DHT22;58882;52.170;5.386;2022-10-23T14:06:24;21.60;57.30
70807;DHT22;58882;52.170;5.386;2022-10-23T14:08:51;21.60;57.20
70807;DHT22;58882;52.170;5.386;2022-10-23T14:11:19;21.60;57.20
70807;DHT22;58882;52.170;5.386;2022-10-23T14:13:46;21.60;57.10
70807;DHT22;58882;52.170;5.386;2022-10-23T14:16:15;21.60;57.10
70807;DHT22;58882;52.170;5.386;2022-10-23T14:18:43;21.60;57.20
70807;DHT22;58882;52.170;5.386;2022-10-23T14:21:12;21.60;57.10
70807;DHT22;58882;52.170;5.386;2022-10-23T14:23:39;21.60;57.10
70807;DHT22;58882;52.170;5.386;2022-10-23T14:26:16;21.60;57.10
70807;DHT22;58882;52.170;5.386;2022-10-23T14:28:44;21.60;57.10
70807;DHT22;58882;52.170;5.386;2022-10-23T14:31:14;21.60;57.20
70807;DHT22;58882;52.170;5.386;2022-10-23T14:33:42;21.60;57.20
70807;DHT22;58882;52.170;5.386;2022-10-23T14:36:09;21.60;57.20
70807;DHT22;58882;52.170;5.386;2022-10-23T14:38:36;21.60;57.20
70807;DHT22;58882;52.170;5.386;2022-10-23T14:41:12;21.60;57.10
70807;DHT22;58882;52.170;5.386;2022-10-23T14:43:39;21.70;57.00
70807;DHT22;58882;52.170;5.386;2022-10-23T14:46:16;21.70;57.00
70807;DHT22;58882;52.170;5.386;2022-10-23T14:48:43;21.70;56.90
70807;DHT22;58882;52.170;5.386;2022-10-23T14:51:20;21.70;56.90
70807;DHT22;58882;52.170;5.386;2022-10-23T14:53:48;21.60;56.90
70807;DHT22;58882;52.170;5.386;2022-10-23T14:56:15;21.60;57.00
70807;DHT22;58882;52.170;5.386;2022-10-23T14:58:42;21.60;57.10
70807;DHT22;58882;52.170;5.386;2022-10-23T15:01:09;21.60;57.20
70807;DHT22;58882;52.170;5.386;2022-10-23T15:03:36;21.50;57.30
70807;DHT22;58882;52.170;5.386;2022-10-23T15:06:05;21.50;57.40
70807;DHT22;58882;52.170;5.386;2022-10-23T15:08:32;21.50;58.40
70807;DHT22;58882;52.170;5.386;2022-10-23T15:10:59;21.50;57.50
70807;DHT22;58882;52.170;5.386;2022-10-23T15:13:27;21.50;57.50
70807;DHT22;58882;52.170;5.386;2022-10-23T15:16:02;21.50;57.60
70807;DHT22;58882;52.170;5.386;2022-10-23T15:18:30;21.50;57.60
70807;DHT22;58882;52.170;5.386;2022-10-23T15:20:57;21.40;57.60
70807;DHT22;58882;52.170;5.386;2022-10-23T15:23:24;21.40;57.70
70807;DHT22;58882;52.170;5.386;2022-10-23T15:25:57;21.40;57.70
70807;DHT22;58882;52.170;5.386;2022-10-23T15:28:26;21.30;57.80
70807;DHT22;58882;52.170;5.386;2022-10-23T15:30:53;21.30;57.90
70807;DHT22;58882;52.170;5.386;2022-10-23T15:33:21;21.30;58.00
70807;DHT22;58882;52.170;5.386;2022-10-23T15:35:48;21.30;58.00
70807;DHT22;58882;52.170;5.386;2022-10-23T15:38:15;21.30;58.10
70807;DHT22;58882;52.170;5.386;2022-10-23T15:40:42;21.30;58.20
70807;DHT22;58882;52.170;5.386;2022-10-23T15:43:12;21.20;58.30
70807;DHT22;58882;52.170;5.386;2022-10-23T15:45:39;21.20;58.40
70807;DHT22;58882;52.170;5.386;2022-10-23T15:48:07;21.20;58.50
70807;DHT22;58882;52.170;5.386;2022-10-23T15:50:35;21.20;58.60
70807;DHT22;58882;52.170;5.386;2022-10-23T15:53:02;21.20;58.70
70807;DHT22;58882;52.170;5.386;2022-10-23T15:55:29;21.10;58.70
70807;DHT22;58882;52.170;5.386;2022-10-23T15:57:56;21.10;58.80
70807;DHT22;58882;52.170;5.386;2022-10-23T16:00:27;21.10;58.90
70807;DHT22;58882;52.170;5.386;2022-10-23T16:02:54;21.10;59.00
70807;DHT22;58882;52.170;5.386;2022-10-23T16:05:21;21.10;59.10
70807;DHT22;58882;52.170;5.386;2022-10-23T16:07:47;21.00;59.10
70807;DHT22;58882;52.170;5.386;2022-10-23T16:10:14;21.00;59.20
70807;DHT22;58882;52.170;5.386;2022-10-23T16:12:41;21.00;59.30
70807;DHT22;58882;52.170;5.386;2022-10-23T16:15:09;21.00;59.40
70807;DHT22;58882;52.170;5.386;2022-10-23T16:17:35;20.90;59.40
70807;DHT22;58882;52.170;5.386;2022-10-23T16:20:02;20.90;59.50
70807;DHT22;58882;52.170;5.386;2022-10-23T16:22:29;20.90;59.60
70807;DHT22;58882;52.170;5.386;2022-10-23T16:24:56;20.90;59.70
70807;DHT22;58882;52.170;5.386;2022-10-23T16:27:23;20.90;59.70
70807;DHT22;58882;52.170;5.386;2022-10-23T16:29:50;20.90;59.80
70807;DHT22;58882;52.170;5.386;2022-10-23T16:32:16;20.80;59.80
70807;DHT22;58882;52.170;5.386;2022-10-23T16:34:44;20.80;59.90
70807;DHT22;58882;52.170;5.386;2022-10-23T16:37:11;20.80;60.00
70807;DHT22;58882;52.170;5.386;2022-10-23T16:39:52;20.80;60.00
70807;DHT22;58882;52.170;5.386;2022-10-23T16:42:37;20.80;60.00
70807;DHT22;58882;52.170;5.386;2022-10-23T16:45:26;20.80;60.00
70807;DHT22;58882;52.170;5.386;2022-10-23T16:47:53;20.80;60.10
70807;DHT22;58882;52.170;5.386;2022-10-23T16:50:19;20.70;60.20
70807;DHT22;58882;52.170;5.386;2022-10-23T16:52:46;20.70;60.20
70807;DHT22;58882;52.170;5.386;2022-10-23T16:55:16;20.70;60.30
70807;DHT22;58882;52.170;5.386;2022-10-23T16:57:43;20.70;60.30
70807;DHT22;58882;52.170;5.386;2022-10-23T17:00:10;20.70;60.40
70807;DHT22;58882;52.170;5.386;2022-10-23T17:02:37;20.70;60.50
70807;DHT22;58882;52.170;5.386;2022-10-23T17:05:04;20.70;60.50
70807;DHT22;58882;52.170;5.386;2022-10-23T17:07:31;20.70;60.50
70807;DHT22;58882;52.170;5.386;2022-10-23T17:09:58;20.70;60.60
70807;DHT22;58882;52.170;5.386;2022-10-23T17:12:25;20.60;60.50
70807;DHT22;58882;52.170;5.386;2022-10-23T17:14:51;20.70;60.70
70807;DHT22;58882;52.170;5.386;2022-10-23T17:17:18;20.60;60.70
70807;DHT22;58882;52.170;5.386;2022-10-23T17:19:45;20.60;60.80
70807;DHT22;58882;52.170;5.386;2022-10-23T17:22:13;20.60;61.00
70807;DHT22;58882;52.170;5.386;2022-10-23T17:24:41;20.60;61.10
70807;DHT22;58882;52.170;5.386;2022-10-23T17:27:11;20.60;61.20
70807;DHT22;58882;52.170;5.386;2022-10-23T17:29:38;20.60;61.20
70807;DHT22;58882;52.170;5.386;2022-10-23T17:32:05;20.60;61.30
70807;DHT22;58882;52.170;5.386;2022-10-23T17:34:32;20.50;61.30
70807;DHT22;58882;52.170;5.386;2022-10-23T17:36:59;20.50;61.40
70807;DHT22;58882;52.170;5.386;2022-10-23T17:39:27;20.50;61.50
70807;DHT22;58882;52.170;5.386;2022-10-23T17:41:54;20.50;61.50
70807;DHT22;58882;52.170;5.386;2022-10-23T17:44:22;20.50;61.40
70807;DHT22;58882;52.170;5.386;2022-10-23T17:46:53;20.50;61.50
70807;DHT22;58882;52.170;5.386;2022-10-23T17:49:21;20.40;61.80
70807;DHT22;58882;52.170;5.386;2022-10-23T17:51:56;20.40;62.00
70807;DHT22;58882;52.170;5.386;2022-10-23T17:54:24;20.40;62.00
70807;DHT22;58882;52.170;5.386;2022-10-23T17:56:51;20.40;61.90
70807;DHT22;58882;52.170;5.386;2022-10-23T17:59:18;20.40;62.00
70807;DHT22;58882;52.170;5.386;2022-10-23T18:01:45;20.40;62.30
70807;DHT22;58882;52.170;5.386;2022-10-23T18:04:15;20.40;62.50
70807;DHT22;58882;52.170;5.386;2022-10-23T18:06:47;20.40;62.50
70807;DHT22;58882;52.170;5.386;2022-10-23T18:09:15;20.40;62.50
70807;DHT22;58882;52.170;5.386;2022-10-23T18:11:42;20.40;62.50